createdAt,value
2017-12-08T00:00:50.044Z,944.97
2017-12-08T00:01:50.051Z,944.8
2017-12-08T00:02:50.034Z,945
2017-12-08T00:03:49.997Z,944.94
2017-12-08T00:04:49.981Z,944.81
2017-12-08T00:05:49.965Z,944.9
2017-12-08T00:06:49.949Z,944.86
2017-12-08T00:07:49.933Z,944.91
2017-12-08T00:08:49.967Z,944.91
2017-12-08T00:09:49.900Z,944.89
2017-12-08T00:10:49.900Z,944.81
2017-12-08T00:11:49.869Z,944.81
2017-12-08T00:12:49.854Z,944.64
2017-12-08T00:13:49.838Z,944.73
2017-12-08T00:14:49.822Z,944.72
2017-12-08T00:15:49.832Z,944.69
2017-12-08T00:16:49.790Z,944.49
2017-12-08T00:17:49.773Z,944.65
2017-12-08T00:18:49.756Z,944.57
2017-12-08T00:19:49.790Z,944.61
2017-12-08T00:20:49.725Z,944.52
2017-12-08T00:21:49.708Z,944.61
2017-12-08T00:22:54.145Z,944.35
2017-12-08T00:23:49.684Z,944.52
2017-12-08T00:24:49.662Z,944.59
2017-12-08T00:25:49.642Z,944.65
2017-12-08T00:26:49.628Z,944.57
2017-12-08T00:27:49.620Z,944.7
2017-12-08T00:28:49.596Z,944.52
2017-12-08T00:29:49.578Z,944.42
2017-12-08T00:30:49.563Z,944.46
2017-12-08T00:31:49.548Z,944.45
2017-12-08T00:32:49.529Z,944.35
2017-12-08T00:33:49.513Z,944.31
2017-12-08T00:34:49.497Z,944.26
2017-12-08T00:35:49.482Z,944.27
2017-12-08T00:36:49.469Z,944.26
2017-12-08T00:37:49.449Z,944.27
2017-12-08T00:38:49.435Z,944.25
2017-12-08T00:39:49.416Z,944.27
2017-12-08T00:40:49.401Z,944.25
2017-12-08T00:41:49.383Z,944.23
2017-12-08T00:42:49.369Z,944.18
2017-12-08T00:43:49.351Z,944.29
2017-12-08T00:44:49.334Z,944.22
2017-12-08T00:45:49.318Z,944.32
2017-12-08T00:46:49.300Z,944.3
2017-12-08T00:47:49.286Z,944.21
2017-12-08T00:48:49.269Z,944.26
2017-12-08T00:49:49.254Z,944.27
2017-12-08T00:50:49.235Z,944.31
2017-12-08T00:51:49.220Z,944.24
2017-12-08T00:52:49.265Z,944.21
2017-12-08T00:53:49.189Z,944.25
2017-12-08T00:54:49.169Z,944.26
2017-12-08T00:55:49.153Z,944.27
2017-12-08T00:56:49.158Z,944.2
2017-12-08T00:57:49.120Z,944.38
2017-12-08T00:58:49.104Z,944.29
2017-12-08T00:59:49.088Z,944.33
2017-12-08T01:00:49.070Z,944.33
2017-12-08T01:01:49.065Z,944.27
2017-12-08T01:02:49.037Z,944.46
2017-12-08T01:03:49.071Z,944.26
2017-12-08T01:04:49.006Z,944.28
2017-12-08T01:05:48.989Z,944.33
2017-12-08T01:06:48.971Z,944.35
2017-12-08T01:07:48.954Z,944.19
2017-12-08T01:08:48.939Z,944.27
2017-12-08T01:09:48.922Z,944.22
2017-12-08T01:10:48.905Z,944.25
2017-12-08T01:11:48.889Z,944.23
2017-12-08T01:12:48.872Z,944.35
2017-12-08T01:13:48.856Z,944.37
2017-12-08T01:14:48.838Z,944.43
2017-12-08T01:15:48.823Z,944.35
2017-12-08T01:16:48.805Z,944.32
2017-12-08T01:17:48.790Z,944.32
2017-12-08T01:18:48.772Z,944.23
2017-12-08T01:19:48.754Z,944.24
2017-12-08T01:20:48.738Z,944.29
2017-12-08T01:21:48.723Z,944.26
2017-12-08T01:22:48.706Z,944.25
2017-12-08T01:23:48.688Z,944.11
2017-12-08T01:24:48.672Z,944.2
2017-12-08T01:25:48.705Z,944.17
2017-12-08T01:26:48.640Z,944.15
2017-12-08T01:27:48.621Z,944.21
2017-12-08T01:28:48.605Z,944.19
2017-12-08T01:29:48.588Z,944.3
2017-12-08T01:30:48.573Z,944.21
2017-12-08T01:31:48.555Z,944.23
2017-12-08T01:32:48.539Z,944.29
2017-12-08T01:33:48.521Z,944.2
2017-12-08T01:34:48.505Z,944.17
2017-12-08T01:35:48.488Z,944.12
2017-12-08T01:36:48.473Z,944.18
2017-12-08T01:37:48.456Z,944.18
2017-12-08T01:38:48.440Z,944.22
2017-12-08T01:39:48.422Z,944.2
2017-12-08T01:40:48.406Z,944.12
2017-12-08T01:41:48.397Z,944.14
2017-12-08T01:42:48.371Z,944.09
2017-12-08T01:43:48.355Z,944.08
2017-12-08T01:44:48.338Z,944.22
2017-12-08T01:45:48.321Z,944.11
2017-12-08T01:46:48.317Z,944.09
2017-12-08T01:47:48.289Z,944.07
2017-12-08T01:48:48.274Z,944.04
2017-12-08T01:49:48.254Z,944.01
2017-12-08T01:50:48.238Z,944
2017-12-08T01:51:48.223Z,943.94
2017-12-08T01:52:48.205Z,943.86
2017-12-08T01:53:48.213Z,943.82
2017-12-08T01:54:48.172Z,943.88
2017-12-08T01:55:48.156Z,943.92
2017-12-08T01:56:48.164Z,943.91
2017-12-08T01:57:48.122Z,943.83
2017-12-08T01:58:48.106Z,943.87
2017-12-08T01:59:48.096Z,943.85
2017-12-08T02:00:48.071Z,943.9
2017-12-08T02:01:48.056Z,943.91
2017-12-08T02:02:48.039Z,943.9
2017-12-08T02:03:48.041Z,943.83
2017-12-08T02:04:48.060Z,943.84
2017-12-08T02:05:47.989Z,943.8
2017-12-08T02:06:47.973Z,943.8
2017-12-08T02:07:47.955Z,943.79
2017-12-08T02:08:47.938Z,943.64
2017-12-08T02:09:47.923Z,943.75
2017-12-08T02:10:47.906Z,943.66
2017-12-08T02:11:47.889Z,943.79
2017-12-08T02:12:47.873Z,943.75
2017-12-08T02:13:47.857Z,943.68
2017-12-08T02:14:47.841Z,943.76
2017-12-08T02:15:47.823Z,943.78
2017-12-08T02:16:47.806Z,943.78
2017-12-08T02:17:47.790Z,943.72
2017-12-08T02:18:47.773Z,943.76
2017-12-08T02:19:47.758Z,943.74
2017-12-08T02:20:47.749Z,943.73
2017-12-08T02:21:47.724Z,943.73
2017-12-08T02:22:47.707Z,943.67
2017-12-08T02:23:47.710Z,943.69
2017-12-08T02:24:47.674Z,943.74
2017-12-08T02:25:47.656Z,943.68
2017-12-08T02:26:47.641Z,943.68
2017-12-08T02:27:47.624Z,943.7
2017-12-08T02:28:47.608Z,943.61
2017-12-08T02:29:47.590Z,943.68
2017-12-08T02:30:47.573Z,943.63
2017-12-08T02:31:47.559Z,943.67
2017-12-08T02:32:47.540Z,943.68
2017-12-08T02:33:47.524Z,943.66
2017-12-08T02:34:47.508Z,943.67
2017-12-08T02:35:47.491Z,943.6
2017-12-08T02:36:47.479Z,943.68
2017-12-08T02:37:47.457Z,943.63
2017-12-08T02:38:47.442Z,943.62
2017-12-08T02:39:47.425Z,943.67
2017-12-08T02:40:47.407Z,943.66
2017-12-08T02:41:47.391Z,943.67
2017-12-08T02:42:47.376Z,943.6
2017-12-08T02:43:47.376Z,943.59
2017-12-08T02:44:47.341Z,943.66
2017-12-08T02:45:47.345Z,943.68
2017-12-08T02:46:47.328Z,943.64
2017-12-08T02:47:47.291Z,943.57
2017-12-08T02:48:47.275Z,943.52
2017-12-08T02:49:47.284Z,943.47
2017-12-08T02:50:47.307Z,943.54
2017-12-08T02:51:47.295Z,943.58
2017-12-08T02:52:47.209Z,943.55
2017-12-08T02:53:47.288Z,943.53
2017-12-08T02:54:47.193Z,943.49
2017-12-08T02:55:47.263Z,943.51
2017-12-08T02:56:47.221Z,943.47
2017-12-08T02:57:47.127Z,943.46
2017-12-08T02:58:47.110Z,943.42
2017-12-08T02:59:47.093Z,943.47
2017-12-08T03:00:47.077Z,943.45
2017-12-08T03:01:47.060Z,943.47
2017-12-08T03:02:47.044Z,943.46
2017-12-08T03:03:47.028Z,943.43
2017-12-08T03:04:47.009Z,943.57
2017-12-08T03:05:46.994Z,943.53
2017-12-08T03:06:46.977Z,943.56
2017-12-08T03:07:46.960Z,943.54
2017-12-08T03:08:46.946Z,943.49
2017-12-08T03:09:46.927Z,943.52
2017-12-08T03:10:46.911Z,943.44
2017-12-08T03:11:46.895Z,943.46
2017-12-08T03:12:46.878Z,943.41
2017-12-08T03:13:46.862Z,943.43
2017-12-08T03:14:46.846Z,943.46
2017-12-08T03:15:46.852Z,943.48
2017-12-08T03:16:46.827Z,943.49
2017-12-08T03:17:46.800Z,943.54
2017-12-08T03:18:46.781Z,943.49
2017-12-08T03:19:46.763Z,943.5
2017-12-08T03:20:46.747Z,943.47
2017-12-08T03:21:46.732Z,943.5
2017-12-08T03:22:46.715Z,943.43
2017-12-08T03:23:46.697Z,943.42
2017-12-08T03:24:46.681Z,943.43
2017-12-08T03:25:46.664Z,943.44
2017-12-08T03:26:46.650Z,943.39
2017-12-08T03:27:46.632Z,943.42
2017-12-08T03:28:46.616Z,943.36
2017-12-08T03:29:46.600Z,943.39
2017-12-08T03:30:46.583Z,943.37
2017-12-08T03:31:46.566Z,943.37
2017-12-08T03:32:46.552Z,943.33
2017-12-08T03:33:46.534Z,943.44
2017-12-08T03:34:46.521Z,943.34
2017-12-08T03:35:46.514Z,943.37
2017-12-08T03:36:46.486Z,943.45
2017-12-08T03:37:46.468Z,943.4
2017-12-08T03:38:46.453Z,943.44
2017-12-08T03:39:46.446Z,943.41
2017-12-08T03:40:46.422Z,943.48
2017-12-08T03:41:46.405Z,943.46
2017-12-08T03:42:46.386Z,943.45
2017-12-08T03:43:46.371Z,943.45
2017-12-08T03:44:46.356Z,943.44
2017-12-08T03:45:46.340Z,943.42
2017-12-08T03:46:46.324Z,943.38
2017-12-08T03:47:46.306Z,943.46
2017-12-08T03:48:46.291Z,943.49
2017-12-08T03:49:46.273Z,943.49
2017-12-08T03:50:46.257Z,943.5
2017-12-08T03:51:46.242Z,943.53
2017-12-08T03:52:46.227Z,943.56
2017-12-08T03:53:46.210Z,943.51
2017-12-08T03:54:46.193Z,943.59
2017-12-08T03:55:46.178Z,943.6
2017-12-08T03:56:46.176Z,943.63
2017-12-08T03:57:46.144Z,943.61
2017-12-08T03:58:46.129Z,943.63
2017-12-08T03:59:46.113Z,943.62
2017-12-08T04:00:46.095Z,943.66
2017-12-08T04:01:46.079Z,943.64
2017-12-08T04:02:46.062Z,943.6
2017-12-08T04:03:46.046Z,943.6
2017-12-08T04:04:46.029Z,943.62
2017-12-08T04:05:46.023Z,943.66
2017-12-08T04:06:45.999Z,943.65
2017-12-08T04:07:45.981Z,943.61
2017-12-08T04:08:45.965Z,943.66
2017-12-08T04:09:45.949Z,943.62
2017-12-08T04:10:45.949Z,943.63
2017-12-08T04:11:45.915Z,943.66
2017-12-08T04:12:45.900Z,943.63
2017-12-08T04:13:45.883Z,943.63
2017-12-08T04:14:45.868Z,943.67
2017-12-08T04:15:45.850Z,943.6
2017-12-08T04:16:45.839Z,943.68
2017-12-08T04:17:45.818Z,943.63
2017-12-08T04:18:45.812Z,943.63
2017-12-08T04:19:45.785Z,943.64
2017-12-08T04:20:45.769Z,943.58
2017-12-08T04:21:45.755Z,943.59
2017-12-08T04:22:45.736Z,943.54
2017-12-08T04:23:45.720Z,943.5
2017-12-08T04:24:45.705Z,943.37
2017-12-08T04:25:45.689Z,943.39
2017-12-08T04:26:45.673Z,943.42
2017-12-08T04:27:45.656Z,943.37
2017-12-08T04:28:45.639Z,943.32
2017-12-08T04:29:45.623Z,943.37
2017-12-08T04:30:45.627Z,943.38
2017-12-08T04:31:45.590Z,943.4
2017-12-08T04:32:45.575Z,943.4
2017-12-08T04:33:45.560Z,943.39
2017-12-08T04:34:45.543Z,943.44
2017-12-08T04:35:45.545Z,943.46
2017-12-08T04:36:45.512Z,943.46
2017-12-08T04:37:45.494Z,943.49
2017-12-08T04:38:45.479Z,943.43
2017-12-08T04:39:45.469Z,943.51
2017-12-08T04:40:45.446Z,943.54
2017-12-08T04:41:45.430Z,943.53
2017-12-08T04:42:45.414Z,943.55
2017-12-08T04:43:45.396Z,943.62
2017-12-08T04:44:45.405Z,943.55
2017-12-08T04:45:45.367Z,943.58
2017-12-08T04:46:45.350Z,943.52
2017-12-08T04:47:45.336Z,943.55
2017-12-08T04:48:45.316Z,943.53
2017-12-08T04:49:45.302Z,943.51
2017-12-08T04:50:45.286Z,943.47
2017-12-08T04:51:45.276Z,943.45
2017-12-08T04:52:45.253Z,943.43
2017-12-08T04:53:45.237Z,943.45
2017-12-08T04:54:45.253Z,943.44
2017-12-08T04:55:45.205Z,943.48
2017-12-08T04:56:45.204Z,943.45
2017-12-08T04:57:45.173Z,943.48
2017-12-08T04:58:45.160Z,943.48
2017-12-08T04:59:45.139Z,943.52
2017-12-08T05:00:45.169Z,943.44
2017-12-08T05:01:45.109Z,943.48
2017-12-08T05:02:45.094Z,943.48
2017-12-08T05:03:45.076Z,943.5
2017-12-08T05:04:45.062Z,943.44
2017-12-08T05:05:45.046Z,943.52
2017-12-08T05:06:45.028Z,943.51
2017-12-08T05:07:45.013Z,943.57
2017-12-08T05:08:44.996Z,943.51
2017-12-08T05:09:44.981Z,943.5
2017-12-08T05:10:44.964Z,943.6
2017-12-08T05:11:44.950Z,943.54
2017-12-08T05:12:44.933Z,943.55
2017-12-08T05:13:44.917Z,943.46
2017-12-08T05:14:44.901Z,943.48
2017-12-08T05:15:44.886Z,943.49
2017-12-08T05:16:44.869Z,943.43
2017-12-08T05:17:44.853Z,943.43
2017-12-08T05:18:44.838Z,943.39
2017-12-08T05:19:44.822Z,943.41
2017-12-08T05:20:44.861Z,943.47
2017-12-08T05:21:44.798Z,943.42
2017-12-08T05:22:44.776Z,943.43
2017-12-08T05:23:44.759Z,943.46
2017-12-08T05:24:44.743Z,943.4
2017-12-08T05:25:44.727Z,943.45
2017-12-08T05:26:44.711Z,943.5
2017-12-08T05:27:44.696Z,943.49
2017-12-08T05:28:44.679Z,943.5
2017-12-08T05:29:44.665Z,943.49
2017-12-08T05:30:44.661Z,943.54
2017-12-08T05:31:44.632Z,943.48
2017-12-08T05:32:44.614Z,943.53
2017-12-08T05:33:44.600Z,943.52
2017-12-08T05:34:44.584Z,943.46
2017-12-08T05:35:44.575Z,943.48
2017-12-08T05:36:44.552Z,943.51
2017-12-08T05:37:44.541Z,943.45
2017-12-08T05:38:44.521Z,943.47
2017-12-08T05:39:44.508Z,943.42
2017-12-08T05:40:44.504Z,943.38
2017-12-08T05:41:44.474Z,943.42
2017-12-08T05:42:44.458Z,943.41
2017-12-08T05:43:44.442Z,943.39
2017-12-08T05:44:44.426Z,943.38
2017-12-08T05:45:44.410Z,943.36
2017-12-08T05:46:44.394Z,943.36
2017-12-08T05:47:44.380Z,943.4
2017-12-08T05:48:44.365Z,943.34
2017-12-08T05:49:44.349Z,943.38
2017-12-08T05:50:44.331Z,943.36
2017-12-08T05:51:44.317Z,943.32
2017-12-08T05:52:44.299Z,943.37
2017-12-08T05:53:44.282Z,943.35
2017-12-08T05:54:44.270Z,943.32
2017-12-08T05:55:44.252Z,943.33
2017-12-08T05:56:44.236Z,943.3
2017-12-08T05:57:44.222Z,943.34
2017-12-08T05:58:44.215Z,943.29
2017-12-08T05:59:44.209Z,943.39
2017-12-08T06:00:44.174Z,943.23
2017-12-08T06:01:44.158Z,943.32
2017-12-08T06:02:44.142Z,943.36
2017-12-08T06:03:44.130Z,943.36
2017-12-08T06:04:44.110Z,943.36
2017-12-08T06:05:44.094Z,943.37
2017-12-08T06:06:44.080Z,943.36
2017-12-08T06:07:44.070Z,943.41
2017-12-08T06:08:44.072Z,943.4
2017-12-08T06:09:44.032Z,943.43
2017-12-08T06:10:44.016Z,943.48
2017-12-08T06:11:44.001Z,943.51
2017-12-08T06:12:43.984Z,943.51
2017-12-08T06:13:43.971Z,943.55
2017-12-08T06:14:43.955Z,943.5
2017-12-08T06:15:43.937Z,943.49
2017-12-08T06:16:43.925Z,943.47
2017-12-08T06:17:43.906Z,943.49
2017-12-08T06:18:43.891Z,943.49
2017-12-08T06:19:43.874Z,943.47
2017-12-08T06:20:43.862Z,943.48
2017-12-08T06:21:43.844Z,943.47
2017-12-08T06:22:43.828Z,943.44
2017-12-08T06:23:43.812Z,943.45
2017-12-08T06:24:43.796Z,943.49
2017-12-08T06:25:43.781Z,943.48
2017-12-08T06:26:43.774Z,943.46
2017-12-08T06:27:43.753Z,943.45
2017-12-08T06:28:43.733Z,943.45
2017-12-08T06:29:43.718Z,943.53
2017-12-08T06:30:43.703Z,943.45
2017-12-08T06:31:43.687Z,943.53
2017-12-08T06:32:43.671Z,943.45
2017-12-08T06:33:43.656Z,943.46
2017-12-08T06:34:43.639Z,943.46
2017-12-08T06:35:43.631Z,943.45
2017-12-08T06:36:43.609Z,943.45
2017-12-08T06:37:43.592Z,943.45
2017-12-08T06:38:43.576Z,943.47
2017-12-08T06:39:43.561Z,943.46
2017-12-08T06:40:43.546Z,943.44
2017-12-08T06:41:43.529Z,943.46
2017-12-08T06:42:43.514Z,943.47
2017-12-08T06:43:43.498Z,943.42
2017-12-08T06:44:43.484Z,943.44
2017-12-08T06:45:43.466Z,943.44
2017-12-08T06:46:43.451Z,943.43
2017-12-08T06:47:43.436Z,943.38
2017-12-08T06:48:43.420Z,943.47
2017-12-08T06:49:43.404Z,943.46
2017-12-08T06:50:43.392Z,943.49
2017-12-08T06:51:43.373Z,943.5
2017-12-08T06:52:43.357Z,943.45
2017-12-08T06:53:43.341Z,943.49
2017-12-08T06:54:43.326Z,943.52
2017-12-08T06:55:43.311Z,943.54
2017-12-08T06:56:43.295Z,943.57
2017-12-08T06:57:43.279Z,943.6
2017-12-08T06:58:43.263Z,943.65
2017-12-08T06:59:43.248Z,943.68
2017-12-08T07:00:43.233Z,943.7
2017-12-08T07:01:43.220Z,943.66
2017-12-08T07:02:43.201Z,943.66
2017-12-08T07:03:43.185Z,943.68
2017-12-08T07:04:43.169Z,943.75
2017-12-08T07:05:43.154Z,943.71
2017-12-08T07:06:43.136Z,943.67
2017-12-08T07:07:43.121Z,943.74
2017-12-08T07:08:43.106Z,943.73
2017-12-08T07:09:43.098Z,943.69
2017-12-08T07:10:43.079Z,943.78
2017-12-08T07:11:43.079Z,943.82
2017-12-08T07:12:43.048Z,943.84
2017-12-08T07:13:43.061Z,943.87
2017-12-08T07:14:43.034Z,943.88
2017-12-08T07:15:43.010Z,943.83
2017-12-08T07:16:42.990Z,943.92
2017-12-08T07:17:43.004Z,943.98
2017-12-08T07:18:42.946Z,943.95
2017-12-08T07:19:42.978Z,943.99
2017-12-08T07:20:42.959Z,943.97
2017-12-08T07:21:42.932Z,944.08
2017-12-08T07:22:42.885Z,944.18
2017-12-08T07:23:42.872Z,944.11
2017-12-08T07:24:42.876Z,944.11
2017-12-08T07:25:42.836Z,944.17
2017-12-08T07:26:42.847Z,944.18
2017-12-08T07:27:42.845Z,944.19
2017-12-08T07:28:42.805Z,944.28
2017-12-08T07:29:42.793Z,944.25
2017-12-08T07:30:42.757Z,944.35
2017-12-08T07:31:42.740Z,944.24
2017-12-08T07:32:42.724Z,944.23
2017-12-08T07:33:42.708Z,944.24
2017-12-08T07:34:42.694Z,944.22
2017-12-08T07:35:42.677Z,944.2
2017-12-08T07:36:42.661Z,944.25
2017-12-08T07:37:42.645Z,944.22
2017-12-08T07:38:42.633Z,944.23
2017-12-08T07:39:42.612Z,944.23
2017-12-08T07:40:42.597Z,944.23
2017-12-08T07:41:42.584Z,944.21
2017-12-08T07:42:42.566Z,944.26
2017-12-08T07:43:42.548Z,944.25
2017-12-08T07:44:42.538Z,944.25
2017-12-08T07:45:42.516Z,944.29
2017-12-08T07:46:42.517Z,944.24
2017-12-08T07:47:42.485Z,944.27
2017-12-08T07:48:42.469Z,944.31
2017-12-08T07:49:42.452Z,944.29
2017-12-08T07:50:42.435Z,944.3
2017-12-08T07:51:42.423Z,944.26
2017-12-08T07:52:42.405Z,944.27
2017-12-08T07:53:42.389Z,944.28
2017-12-08T07:54:42.371Z,944.25
2017-12-08T07:55:42.356Z,944.24
2017-12-08T07:56:42.358Z,944.21
2017-12-08T07:57:42.324Z,944.22
2017-12-08T07:58:42.307Z,944.2
2017-12-08T07:59:42.291Z,944.26
2017-12-08T08:00:42.277Z,944.23
2017-12-08T08:01:42.260Z,944.3
2017-12-08T08:02:42.242Z,944.27
2017-12-08T08:03:42.228Z,944.3
2017-12-08T08:04:42.212Z,944.28
2017-12-08T08:05:42.195Z,944.22
2017-12-08T08:06:42.179Z,944.27
2017-12-08T08:07:42.163Z,944.29
2017-12-08T08:08:42.157Z,944.23
2017-12-08T08:09:42.140Z,944.26
2017-12-08T08:10:42.114Z,944.28
2017-12-08T08:11:42.100Z,944.3
2017-12-08T08:12:42.083Z,944.29
2017-12-08T08:13:42.066Z,944.27
2017-12-08T08:14:42.051Z,944.32
2017-12-08T08:15:42.033Z,944.33
2017-12-08T08:16:42.026Z,944.36
2017-12-08T08:17:42.002Z,944.41
2017-12-08T08:18:41.986Z,944.41
2017-12-08T08:19:41.970Z,944.42
2017-12-08T08:20:41.953Z,944.41
2017-12-08T08:21:41.938Z,944.33
2017-12-08T08:22:41.940Z,944.35
2017-12-08T08:23:41.905Z,944.42
2017-12-08T08:24:41.890Z,944.41
2017-12-08T08:25:41.873Z,944.4
2017-12-08T08:26:41.859Z,944.44
2017-12-08T08:27:41.843Z,944.46
2017-12-08T08:28:41.824Z,944.52
2017-12-08T08:29:41.808Z,944.49
2017-12-08T08:30:41.794Z,944.57
2017-12-08T08:31:41.779Z,944.55
2017-12-08T08:32:41.763Z,944.6
2017-12-08T08:33:41.746Z,944.55
2017-12-08T08:34:41.730Z,944.55
2017-12-08T08:35:41.713Z,944.57
2017-12-08T08:36:41.698Z,944.61
2017-12-08T08:37:41.694Z,944.53
2017-12-08T08:38:41.665Z,944.54
2017-12-08T08:39:41.649Z,944.57
2017-12-08T08:40:41.637Z,944.56
2017-12-08T08:41:41.617Z,944.64
2017-12-08T08:42:41.610Z,944.68
2017-12-08T08:43:41.587Z,944.73
2017-12-08T08:44:41.570Z,944.75
2017-12-08T08:45:41.803Z,944.78
2017-12-08T08:46:41.539Z,944.84
2017-12-08T08:47:41.539Z,944.81
2017-12-08T08:48:41.507Z,944.82
2017-12-08T08:49:41.490Z,944.83
2017-12-08T08:50:41.475Z,944.88
2017-12-08T08:51:41.461Z,944.85
2017-12-08T08:52:41.442Z,944.92
2017-12-08T08:53:41.426Z,944.91
2017-12-08T08:54:41.421Z,944.95
2017-12-08T08:55:41.395Z,944.94
2017-12-08T08:56:41.378Z,944.91
2017-12-08T08:57:41.364Z,944.96
2017-12-08T08:58:41.349Z,944.96
2017-12-08T08:59:41.331Z,945.01
2017-12-08T09:00:41.315Z,945
2017-12-08T09:01:41.323Z,945.02
2017-12-08T09:02:41.285Z,945.02
2017-12-08T09:03:41.267Z,945.04
2017-12-08T09:04:41.251Z,945.04
2017-12-08T09:05:41.236Z,944.98
2017-12-08T09:06:41.221Z,945.05
2017-12-08T09:07:41.203Z,945.04
2017-12-08T09:08:41.187Z,944.97
2017-12-08T09:09:41.172Z,944.99
2017-12-08T09:10:41.158Z,945.04
2017-12-08T09:11:41.141Z,945.04
2017-12-08T09:12:41.124Z,945.03
2017-12-08T09:13:41.109Z,945.04
2017-12-08T09:14:41.092Z,945.09
2017-12-08T09:15:41.097Z,945.07
2017-12-08T09:16:41.060Z,945.05
2017-12-08T09:17:41.045Z,945.04
2017-12-08T09:18:41.029Z,945.04
2017-12-08T09:19:41.012Z,945.06
2017-12-08T09:20:40.997Z,945.05
2017-12-08T09:21:40.982Z,945
2017-12-08T09:22:40.963Z,945.05
2017-12-08T09:23:40.952Z,945.03
2017-12-08T09:24:40.932Z,945.04
2017-12-08T09:25:40.916Z,945.09
2017-12-08T09:26:40.900Z,945.14
2017-12-08T09:27:40.927Z,945.16
2017-12-08T09:28:40.869Z,945.09
2017-12-08T09:29:40.871Z,945.09
2017-12-08T09:30:40.836Z,945.16
2017-12-08T09:31:40.823Z,945.12
2017-12-08T09:32:40.804Z,945.13
2017-12-08T09:33:40.787Z,945.14
2017-12-08T09:34:40.818Z,945.04
2017-12-08T09:35:40.756Z,945.06
2017-12-08T09:36:40.740Z,945.09
2017-12-08T09:37:40.722Z,945.04
2017-12-08T09:38:40.712Z,945.06
2017-12-08T09:39:40.691Z,945.04
2017-12-08T09:40:40.674Z,945
2017-12-08T09:41:40.659Z,945
2017-12-08T09:42:40.641Z,944.99
2017-12-08T09:43:40.626Z,944.93
2017-12-08T09:44:40.609Z,944.96
2017-12-08T09:45:40.594Z,944.92
2017-12-08T09:46:40.576Z,944.93
2017-12-08T09:47:40.560Z,944.95
2017-12-08T09:48:40.548Z,944.98
2017-12-08T09:49:40.527Z,944.95
2017-12-08T09:50:40.512Z,944.95
2017-12-08T09:51:40.493Z,944.98
2017-12-08T09:52:40.479Z,944.97
2017-12-08T09:53:40.466Z,944.97
2017-12-08T09:54:40.447Z,944.96
2017-12-08T09:55:40.429Z,944.97
2017-12-08T09:56:40.413Z,945.01
2017-12-08T09:57:40.399Z,944.94
2017-12-08T09:58:40.380Z,944.92
2017-12-08T09:59:40.368Z,944.94
2017-12-08T10:00:40.347Z,944.91
2017-12-08T10:01:40.332Z,944.87
2017-12-08T10:02:40.315Z,944.88
2017-12-08T10:03:40.298Z,944.84
2017-12-08T10:04:40.285Z,944.92
2017-12-08T10:05:40.267Z,944.92
2017-12-08T10:06:40.250Z,944.85
2017-12-08T10:07:40.235Z,944.88
2017-12-08T10:08:40.220Z,944.85
2017-12-08T10:09:40.202Z,944.82
2017-12-08T10:10:40.185Z,944.84
2017-12-08T10:11:40.168Z,944.82
2017-12-08T10:12:40.152Z,944.9
2017-12-08T10:13:40.136Z,944.84
2017-12-08T10:14:40.120Z,944.82
2017-12-08T10:15:40.106Z,944.82
2017-12-08T10:16:40.095Z,944.81
2017-12-08T10:17:40.072Z,944.82
2017-12-08T10:18:40.056Z,944.77
2017-12-08T10:19:40.040Z,944.79
2017-12-08T10:20:40.024Z,944.74
2017-12-08T10:21:40.007Z,944.76
2017-12-08T10:22:40.038Z,944.74
2017-12-08T10:23:39.980Z,944.72
2017-12-08T10:24:39.963Z,944.73
2017-12-08T10:25:39.945Z,944.69
2017-12-08T10:26:39.929Z,944.7
2017-12-08T10:27:39.912Z,944.65
2017-12-08T10:28:39.897Z,944.63
2017-12-08T10:29:39.882Z,944.54
2017-12-08T10:30:39.866Z,944.6
2017-12-08T10:31:39.849Z,944.49
2017-12-08T10:32:39.836Z,944.45
2017-12-08T10:33:39.818Z,944.46
2017-12-08T10:34:39.802Z,944.45
2017-12-08T10:35:39.787Z,944.46
2017-12-08T10:36:39.778Z,944.45
2017-12-08T10:37:39.756Z,944.52
2017-12-08T10:38:39.739Z,944.43
2017-12-08T10:39:39.723Z,944.47
2017-12-08T10:40:39.708Z,944.42
2017-12-08T10:41:39.702Z,944.44
2017-12-08T10:42:39.675Z,944.41
2017-12-08T10:43:39.660Z,944.45
2017-12-08T10:44:39.647Z,944.51
2017-12-08T10:45:39.632Z,944.51
2017-12-08T10:46:39.612Z,944.48
2017-12-08T10:47:39.596Z,944.56
2017-12-08T10:48:39.581Z,944.49
2017-12-08T10:49:39.565Z,944.54
2017-12-08T10:50:39.549Z,944.53
2017-12-08T10:51:39.535Z,944.55
2017-12-08T10:52:39.518Z,944.59
2017-12-08T10:53:39.502Z,944.6
2017-12-08T10:54:39.486Z,944.59
2017-12-08T10:55:39.487Z,944.63
2017-12-08T10:56:39.456Z,944.56
2017-12-08T10:57:39.439Z,944.52
2017-12-08T10:58:39.424Z,944.6
2017-12-08T10:59:39.410Z,944.45
2017-12-08T11:00:39.392Z,944.42
2017-12-08T11:01:39.377Z,944.47
2017-12-08T11:02:39.361Z,944.43
2017-12-08T11:03:39.346Z,944.38
2017-12-08T11:04:39.335Z,944.35
2017-12-08T11:05:39.314Z,944.33
2017-12-08T11:06:39.298Z,944.27
2017-12-08T11:07:39.284Z,944.33
2017-12-08T11:08:39.267Z,944.27
2017-12-08T11:09:39.252Z,944.26
2017-12-08T11:10:39.236Z,944.24
2017-12-08T11:11:39.234Z,944.26
2017-12-08T11:12:39.205Z,944.25
2017-12-08T11:13:39.189Z,944.27
2017-12-08T11:14:39.193Z,944.25
2017-12-08T11:15:39.158Z,944.23
2017-12-08T11:16:39.142Z,944.23
2017-12-08T11:17:39.129Z,944.26
2017-12-08T11:18:39.112Z,944.22
2017-12-08T11:19:39.096Z,944.24
2017-12-08T11:20:39.082Z,944.27
2017-12-08T11:21:39.066Z,944.27
2017-12-08T11:22:39.049Z,944.34
2017-12-08T11:23:39.034Z,944.4
2017-12-08T11:24:39.022Z,944.49
2017-12-08T11:25:39.003Z,944.41
2017-12-08T11:26:38.987Z,944.34
2017-12-08T11:27:38.972Z,944.38
2017-12-08T11:28:38.971Z,944.35
2017-12-08T11:29:38.941Z,944.35
2017-12-08T11:30:38.923Z,944.38
2017-12-08T11:31:38.908Z,944.35
2017-12-08T11:32:38.893Z,944.34
2017-12-08T11:33:38.874Z,944.31
2017-12-08T11:34:38.858Z,944.3
2017-12-08T11:35:38.842Z,944.31
2017-12-08T11:36:38.827Z,944.34
2017-12-08T11:37:38.809Z,944.4
2017-12-08T11:38:38.792Z,944.41
2017-12-08T11:39:38.777Z,944.38
2017-12-08T11:40:38.759Z,944.36
2017-12-08T11:41:38.744Z,944.44
2017-12-08T11:42:38.726Z,944.4
2017-12-08T11:43:38.709Z,944.38
2017-12-08T11:44:38.696Z,944.43
2017-12-08T11:45:38.676Z,944.44
2017-12-08T11:46:38.660Z,944.4
2017-12-08T11:47:38.647Z,944.39
2017-12-08T11:48:38.624Z,944.43
2017-12-08T11:49:38.606Z,944.38
2017-12-08T11:50:38.590Z,944.33
2017-12-08T11:51:38.572Z,944.34
2017-12-08T11:52:38.554Z,944.34
2017-12-08T11:53:38.538Z,944.34
2017-12-08T11:54:38.519Z,944.38
2017-12-08T11:55:38.519Z,944.4
2017-12-08T11:56:38.486Z,944.45
2017-12-08T11:57:38.469Z,944.43
2017-12-08T11:58:38.451Z,944.41
2017-12-08T11:59:38.435Z,944.41
2017-12-08T12:00:38.416Z,944.42
2017-12-08T12:01:38.401Z,944.39
2017-12-08T12:02:38.382Z,944.37
2017-12-08T12:03:38.364Z,944.36
2017-12-08T12:04:38.349Z,944.32
2017-12-08T12:05:38.331Z,944.29
2017-12-08T12:06:38.314Z,944.28
2017-12-08T12:07:38.302Z,944.29
2017-12-08T12:08:38.279Z,944.32
2017-12-08T12:09:38.274Z,944.22
2017-12-08T12:10:38.262Z,944.25
2017-12-08T12:11:38.229Z,944.24
2017-12-08T12:12:38.211Z,944.22
2017-12-08T12:13:38.194Z,944.17
2017-12-08T12:14:38.178Z,944.19
2017-12-08T12:15:38.161Z,944.19
2017-12-08T12:16:38.143Z,944.22
2017-12-08T12:17:38.125Z,944.3
2017-12-08T12:18:38.110Z,944.3
2017-12-08T12:19:38.093Z,944.32
2017-12-08T12:20:38.076Z,944.28
2017-12-08T12:21:38.057Z,944.33
2017-12-08T12:22:38.040Z,944.34
2017-12-08T12:23:38.025Z,944.25
2017-12-08T12:24:38.006Z,944.23
2017-12-08T12:25:37.989Z,944.23
2017-12-08T12:26:37.985Z,944.21
2017-12-08T12:27:37.955Z,944.2
2017-12-08T12:28:37.938Z,944.17
2017-12-08T12:29:37.920Z,944.19
2017-12-08T12:30:37.903Z,944.2
2017-12-08T12:31:37.887Z,944.14